Time;durP1;ratioP1;P1;durP2;ratioP2;P2;SDS_P1;SDS_P2;PMS_P1;PMS_P2;Temp;Humidity;BMP_temperature;BMP_pressure;BME280_temperature;BME280_humidity;BME280_pressure;Samples;Min_cycle;Max_cycle;Signal;HPM_P1;HPM_P2
2021/01/27 00:02:03;;;;;;;;;;;;;;;;;;5015130;28;19937;-62
2021/01/27 00:04:29;;;;;;;;;;;;;;;;;;5016149;28;19982;-61
2021/01/27 00:06:55;;;;;;;;;;;;;;;;;;5016236;28;19925;-62
2021/01/27 00:09:21;;;;;;;;;;;;;;;;;;5016098;28;19929;-62
2021/01/27 00:11:47;;;;;;;;;;;;;;;;;;5014835;28;19983;-62
2021/01/27 00:14:13;;;;;;;;;;;;;;;;;;5016181;28;20012;-62
2021/01/27 00:16:39;;;;;;;;;;;;;;;;;;5016100;28;19917;-62
2021/01/27 00:19:06;;;;;;;;;;;;;;;;;;5016206;28;19930;-62
2021/01/27 00:21:32;;;;;;;;;;;;;;;;;;5015941;28;19924;-62
2021/01/27 00:23:58;;;;;;;;;;;;;;;;;;5015695;28;20044;-62
2021/01/27 00:26:24;;;;;;;;;;;;;;;;;;5015846;28;19974;-62
2021/01/27 00:28:50;;;;;;;;;;;;;;;;;;5015793;28;20059;-62
2021/01/27 00:31:16;;;;;;;;;;;;;;;;;;5016029;28;19917;-62
2021/01/27 00:33:42;;;;;;;;;;;;;;;;;;5016022;28;20322;-62
2021/01/27 00:36:08;;;;;;;;;;;;;;;;;;5015709;28;19935;-62
2021/01/27 00:38:34;;;;;;;;;;;;;;;;;;5014432;28;19951;-62
2021/01/27 00:40:59;;;;;;;;;;;;;;;;;;5015823;28;20020;-62
2021/01/27 00:43:26;;;;;;;;;;;;;;;;;;5015589;28;20392;-63
2021/01/27 00:45:52;;;;;;;;;;;;;;;;;;5015554;28;19945;-63
2021/01/27 00:48:17;;;;;;;;;;;;;;;;;;5015749;28;19913;-62
2021/01/27 00:50:43;;;;;;;;;;;;;;;;;;5015305;28;20256;-62
2021/01/27 00:53:09;;;;;;;;;;;;;;;;;;5014201;28;19957;-63
2021/01/27 00:55:35;;;;;;;;;;;;;;;;;;5015597;28;19924;-62
2021/01/27 00:58:01;;;;;;;;;;;;;;;;;;5015273;28;20298;-62
2021/01/27 01:00:27;;;;;;;;;;;;;;;;;;5015155;28;19926;-62
2021/01/27 01:02:53;;;;;;;;;;;;;;;;;;5015561;28;19909;-62
2021/01/27 01:05:19;;;;;;;;;;;;;;;;;;5015482;28;20313;-62
2021/01/27 01:07:46;;;;;;;;;;;;;;;;;;5015096;28;19954;-62
2021/01/27 01:10:12;;;;;;;;;;;;;;;;;;5015061;28;19930;-61
2021/01/27 01:12:38;;;;;;;;;;;;;;;;;;5015087;28;19954;-62
2021/01/27 01:15:04;;;;;;;;;;;;;;;;;;5014942;28;20407;-62
2021/01/27 01:17:30;;;;;;;;;;;;;;;;;;5015269;28;19950;-62
2021/01/27 01:19:56;;;;;;;;;;;;;;;;;;5015218;28;19972;-62
2021/01/27 01:22:22;;;;;;;;;;;;;;;;;;5014837;28;19924;-61
2021/01/27 01:24:48;;;;;;;;;;;;;;;;;;5014541;28;20018;-62
2021/01/27 01:27:14;;;;;;;;;;;;;;;;;;5014763;28;19924;-62
2021/01/27 01:29:40;;;;;;;;;;;;;;;;;;5014249;28;20091;-61
2021/01/27 01:32:05;;;;;;;;;;;;;;;;;;5014875;28;19954;-62
2021/01/27 01:34:31;;;;;;;;;;;;;;;;;;5014704;28;20389;-62
2021/01/27 01:36:57;;;;;;;;;;;;;;;;;;5014470;28;20085;-62
2021/01/27 01:39:23;;;;;;;;;;;;;;;;;;5015318;28;19991;-62
2021/01/27 01:41:49;;;;;;;;;;;;;;;;;;5014733;28;19910;-62
2021/01/27 01:44:15;;;;;;;;;;;;;;;;;;5014447;28;19924;-62
2021/01/27 01:46:41;;;;;;;;;;;;;;;;;;5014642;28;19916;-62
2021/01/27 01:49:07;;;;;;;;;;;;;;;;;;5014733;28;20398;-61
2021/01/27 01:51:33;;;;;;;;;;;;;;;;;;5014577;28;19967;-61
2021/01/27 01:53:59;;;;;;;;;;;;;;;;;;5014641;28;19924;-61
2021/01/27 01:56:25;;;;;;;;;;;;;;;;;;5014228;28;20408;-62
2021/01/27 01:58:51;;;;;;;;;;;;;;;;;;5014338;28;19910;-62
2021/01/27 02:01:17;;;;;;;;;;;;;;;;;;5014122;28;19973;-62
2021/01/27 02:03:44;;;;;;;;;;;;;;;;;;5014245;28;19925;-62
2021/01/27 02:06:10;;;;;;;;;;;;;;;;;;5014416;28;20347;-62
2021/01/27 02:08:36;;;;;;;;;;;;;;;;;;5014287;28;19970;-61
2021/01/27 02:11:02;;;;;;;;;;;;;;;;;;5013963;28;20047;-61
2021/01/27 02:13:28;;;;;;;;;;;;;;;;;;5014572;28;19921;-61
2021/01/27 02:15:54;;;;;;;;;;;;;;;;;;5013992;28;19983;-61
2021/01/27 02:18:20;;;;;;;;;;;;;;;;;;5014421;28;19926;-61
2021/01/27 02:20:46;;;;;;;;;;;;;;;;;;5014006;28;20285;-61
2021/01/27 02:23:12;;;;;;;;;;;;;;;;;;5013987;28;19913;-61
2021/01/27 02:25:38;;;;;;;;;;;;;;;;;;5013780;28;19971;-61
2021/01/27 02:28:04;;;;;;;;;;;;;;;;;;5013905;28;19931;-61
2021/01/27 02:30:30;;;;;;;;;;;;;;;;;;5013986;28;19927;-61
2021/01/27 02:32:56;;;;;;;;;;;;;;;;;;5014170;28;19958;-61
2021/01/27 02:35:22;;;;;;;;;;;;;;;;;;5013944;28;20330;-61
2021/01/27 02:37:48;;;;;;;;;;;;;;;;;;5014208;28;20016;-62
2021/01/27 02:40:14;;;;;;;;;;;;;;;;;;5013763;28;20399;-61
2021/01/27 02:42:40;;;;;;;;;;;;;;;;;;5015902;28;19948;-61
2021/01/27 02:45:06;;;;;;;;;;;;;;;;;;5017793;28;19955;-61
2021/01/27 02:47:32;;;;;;;;;;;;;;;;;;5017691;28;20344;-61
2021/01/27 02:49:58;;;;;;;;;;;;;;;;;;5018088;28;19932;-62
2021/01/27 02:52:24;;;;;;;;;;;;;;;;;;5017795;28;19918;-62
2021/01/27 02:54:50;;;;;;;;;;;;;;;;;;5017646;28;20380;-62
2021/01/27 02:57:16;;;;;;;;;;;;;;;;;;5017840;28;19925;-62
2021/01/27 02:59:42;;;;;;;;;;;;;;;;;;5017571;28;19934;-62
2021/01/27 03:02:08;;;;;;;;;;;;;;;;;;5017757;28;19980;-62
2021/01/27 03:04:34;;;;;;;;;;;;;;;;;;5017657;28;20274;-62
2021/01/27 03:07:00;;;;;;;;;;;;;;;;;;5017624;28;19971;-61
2021/01/27 03:09:26;;;;;;;;;;;;;;;;;;5017373;28;20051;-62
2021/01/27 03:11:52;;;;;;;;;;;;;;;;;;5017173;28;20002;-61
2021/01/27 03:14:18;;;;;;;;;;;;;;;;;;5017598;28;19968;-62
2021/01/27 03:16:44;;;;;;;;;;;;;;;;;;5017166;28;20341;-61
2021/01/27 03:19:10;;;;;;;;;;;;;;;;;;5017166;28;19931;-62
2021/01/27 03:21:36;;;;;;;;;;;;;;;;;;5017431;28;19920;-62
2021/01/27 03:24:02;;;;;;;;;;;;;;;;;;5016882;28;20011;-61
2021/01/27 03:26:28;;;;;;;;;;;;;;;;;;5017131;28;19928;-61
2021/01/27 03:28:54;;;;;;;;;;;;;;;;;;5016973;28;19925;-62
2021/01/27 03:31:20;;;;;;;;;;;;;;;;;;5017150;28;19958;-61
2021/01/27 03:33:46;;;;;;;;;;;;;;;;;;5016884;28;19909;-61
2021/01/27 03:36:12;;;;;;;;;;;;;;;;;;5017137;28;19909;-61
2021/01/27 03:38:38;;;;;;;;;;;;;;;;;;5016896;28;19926;-61
2021/01/27 03:41:04;;;;;;;;;;;;;;;;;;5016739;28;19929;-61
2021/01/27 03:43:29;;;;;;;;;;;;;;;;;;5017001;28;19945;-61
2021/01/27 03:45:55;;;;;;;;;;;;;;;;;;5016936;28;20380;-61
2021/01/27 03:48:21;;;;;;;;;;;;;;;;;;5016507;28;20301;-61
2021/01/27 03:50:47;;;;;;;;;;;;;;;;;;5016502;28;19924;-61
2021/01/27 03:53:13;;;;;;;;;;;;;;;;;;5016330;28;20022;-61
2021/01/27 03:55:39;;;;;;;;;;;;;;;;;;5016460;28;20320;-61
2021/01/27 03:58:05;;;;;;;;;;;;;;;;;;5016472;28;19971;-61
2021/01/27 04:00:31;;;;;;;;;;;;;;;;;;5016394;28;19983;-61
2021/01/27 04:02:57;;;;;;;;;;;;;;;;;;5016294;28;19910;-62
2021/01/27 04:05:23;;;;;;;;;;;;;;;;;;5016229;28;19948;-61
2021/01/27 04:07:49;;;;;;;;;;;;;;;;;;5016548;28;19920;-61
2021/01/27 04:10:15;;;;;;;;;;;;;;;;;;5016157;28;19924;-61
2021/01/27 04:12:41;;;;;;;;;;;;;;;;;;5016277;28;20294;-61
2021/01/27 04:15:07;;;;;;;;;;;;;;;;;;5016469;28;19924;-61
2021/01/27 04:17:33;;;;;;;;;;;;;;;;;;5016273;28;19917;-61
2021/01/27 04:19:59;;;;;;;;;;;;;;;;;;5016068;28;19978;-61
2021/01/27 04:22:25;;;;;;;;;;;;;;;;;;5015925;28;19924;-61
2021/01/27 04:24:51;;;;;;;;;;;;;;;;;;5015725;28;19955;-61
2021/01/27 04:27:17;;;;;;;;;;;;;;;;;;5016168;28;19923;-61
2021/01/27 04:29:43;;;;;;;;;;;;;;;;;;5015905;28;19924;-61
2021/01/27 04:32:09;;;;;;;;;;;;;;;;;;5015765;28;19948;-62
2021/01/27 04:34:35;;;;;;;;;;;;;;;;;;5015697;28;20003;-62
2021/01/27 04:37:01;;;;;;;;;;;;;;;;;;5016016;28;19970;-61
2021/01/27 04:39:27;;;;;;;;;;;;;;;;;;5015770;28;20323;-61
2021/01/27 04:41:53;;;;;;;;;;;;;;;;;;5015562;28;19956;-61
2021/01/27 04:44:19;;;;;;;;;;;;;;;;;;5015558;28;19925;-61
2021/01/27 04:46:45;;;;;;;;;;;;;;;;;;5015786;28;19927;-62
2021/01/27 04:49:11;;;;;;;;;;;;;;;;;;5015450;28;20412;-61
2021/01/27 04:51:37;;;;;;;;;;;;;;;;;;5015429;28;19950;-61
2021/01/27 04:54:03;;;;;;;;;;;;;;;;;;5015382;28;19924;-61
2021/01/27 04:56:29;;;;;;;;;;;;;;;;;;5015376;28;19949;-61
2021/01/27 04:58:55;;;;;;;;;;;;;;;;;;5015231;28;19924;-61
2021/01/27 05:01:21;;;;;;;;;;;;;;;;;;5015497;28;19928;-61
2021/01/27 05:03:47;;;;;;;;;;;;;;;;;;5014977;28;20409;-61
2021/01/27 05:06:12;;;;;;;;;;;;;;;;;;5014501;28;19980;-61
2021/01/27 05:08:38;;;;;;;;;;;;;;;;;;5015214;28;19914;-61
2021/01/27 05:11:04;;;;;;;;;;;;;;;;;;5015204;28;19961;-61
2021/01/27 05:13:30;;;;;;;;;;;;;;;;;;5015305;28;19953;-61
2021/01/27 05:15:56;;;;;;;;;;;;;;;;;;5015344;28;19910;-61
2021/01/27 05:18:22;;;;;;;;;;;;;;;;;;5014860;28;20331;-62
2021/01/27 05:20:48;;;;;;;;;;;;;;;;;;5014989;28;20001;-62
2021/01/27 05:23:14;;;;;;;;;;;;;;;;;;5014925;28;20354;-63
2021/01/27 05:25:40;;;;;;;;;;;;;;;;;;5014686;28;19970;-62
2021/01/27 05:28:06;;;;;;;;;;;;;;;;;;5014741;28;19933;-61
2021/01/27 05:30:32;;;;;;;;;;;;;;;;;;5014876;28;19972;-61
2021/01/27 05:32:58;;;;;;;;;;;;;;;;;;5014725;28;19978;-62
2021/01/27 05:35:24;;;;;;;;;;;;;;;;;;5014711;28;19931;-62
2021/01/27 05:37:50;;;;;;;;;;;;;;;;;;5014708;28;19925;-62
2021/01/27 05:40:16;;;;;;;;;;;;;;;;;;5014946;28;19967;-62
2021/01/27 05:42:42;;;;;;;;;;;;;;;;;;5014592;28;19916;-61
2021/01/27 05:45:08;;;;;;;;;;;;;;;;;;5014786;28;19956;-62
2021/01/27 05:47:34;;;;;;;;;;;;;;;;;;5014499;28;20278;-62
2021/01/27 05:50:00;;;;;;;;;;;;;;;;;;5014759;28;19959;-62
2021/01/27 05:52:26;;;;;;;;;;;;;;;;;;5014356;28;20000;-62
2021/01/27 05:54:52;;;;;;;;;;;;;;;;;;5009240;28;19927;-62
2021/01/27 05:57:18;;;;;;;;;;;;;;;;;;5011224;28;19932;-62
2021/01/27 05:59:44;;;;;;;;;;;;;;;;;;5013829;28;19926;-62
2021/01/27 06:02:10;;;;;;;;;;;;;;;;;;5012905;28;20017;-62
2021/01/27 06:04:36;;;;;;;;;;;;;;;;;;5014189;28;19917;-62
2021/01/27 06:07:02;;;;;;;;;;;;;;;;;;5014081;28;19944;-62
2021/01/27 06:09:28;;;;;;;;;;;;;;;;;;5014093;28;19935;-62
2021/01/27 06:11:54;;;;;;;;;;;;;;;;;;5014100;28;19944;-62
2021/01/27 06:14:21;;;;;;;;;;;;;;;;;;5014056;28;19909;-62
2021/01/27 06:16:48;;;;;;;;;;;;;;;;;;5013903;28;19925;-62
2021/01/27 06:19:14;;;;;;;;;;;;;;;;;;5014267;28;19916;-62
2021/01/27 06:21:40;;;;;;;;;;;;;;;;;;5014290;28;20022;-62
2021/01/27 06:24:06;;;;;;;;;;;;;;;;;;5013641;28;19964;-62
2021/01/27 06:26:32;;;;;;;;;;;;;;;;;;5014094;28;19952;-62
2021/01/27 06:28:58;;;;;;;;;;;;;;;;;;5013952;28;19927;-62
2021/01/27 06:31:24;;;;;;;;;;;;;;;;;;5013923;28;20001;-62
2021/01/27 06:33:50;;;;;;;;;;;;;;;;;;5013869;28;19955;-62
2021/01/27 06:36:18;;;;;;;;;;;;;;;;;;5014130;28;20011;-62
2021/01/27 06:38:44;;;;;;;;;;;;;;;;;;5013807;28;19948;-62
2021/01/27 06:41:10;;;;;;;;;;;;;;;;;;5013757;28;19931;-62
2021/01/27 06:43:36;;;;;;;;;;;;;;;;;;5014053;28;19924;-61
2021/01/27 06:46:02;;;;;;;;;;;;;;;;;;5013421;28;20420;-60
2021/01/27 06:48:28;;;;;;;;;;;;;;;;;;5013504;28;20002;-63
2021/01/27 06:50:54;;;;;;;;;;;;;;;;;;5013541;28;19925;-63
2021/01/27 06:53:20;;;;;;;;;;;;;;;;;;5014006;28;19934;-64
2021/01/27 06:55:46;;;;;;;;;;;;;;;;;;5013646;28;19924;-63
2021/01/27 06:58:12;;;;;;;;;;;;;;;;;;5013843;28;20435;-64
2021/01/27 07:00:38;;;;;;;;;;;;;;;;;;5013616;28;20066;-63
2021/01/27 07:03:04;;;;;;;;;;;;;;;;;;5020464;28;19949;-60
2021/01/27 07:05:30;;;;;;;;;;;;;;;;;;5031713;28;20034;-61
2021/01/27 07:07:56;;;;;;;;;;;;;;;;;;5031972;28;19977;-61
2021/01/27 07:10:22;;;;;;;;;;;;;;;;;;5033239;28;19925;-63
2021/01/27 07:12:48;;;;;;;;;;;;;;;;;;5033104;28;19956;-63
2021/01/27 07:15:14;;;;;;;;;;;;;;;;;;5033195;28;20016;-63
2021/01/27 07:17:40;;;;;;;;;;;;;;;;;;5033568;28;19920;-62
2021/01/27 07:20:06;;;;;;;;;;;;;;;;;;5033200;28;20310;-63
2021/01/27 07:22:32;;;;;;;;;;;;;;;;;;5033227;28;20428;-63
2021/01/27 07:24:58;;;;;;;;;;;;;;;;;;5032837;28;19960;-63
2021/01/27 07:27:24;;;;;;;;;;;;;;;;;;5033050;28;19927;-63
2021/01/27 07:29:50;;;;;;;;;;;;;;;;;;5017766;28;19999;-63
2021/01/27 07:32:15;;;;;;;;;;;;;;;;;;5017024;28;19944;-60
2021/01/27 07:34:42;;;;;;;;;;;;;;;;;;5017026;28;20318;-63
2021/01/27 07:37:08;;;;;;;;;;;;;;;;;;5017158;28;19921;-62
2021/01/27 07:39:33;;;;;;;;;;;;;;;;;;5017132;28;20156;-62
2021/01/27 07:41:59;;;;;;;;;;;;;;;;;;5016707;28;20027;-62
2021/01/27 07:44:25;;;;;;;;;;;;;;;;;;5024666;28;19925;-62
2021/01/27 07:46:51;;;;;;;;;;;;;;;;;;5036649;28;19985;-62
2021/01/27 07:49:17;;;;;;;;;;;;;;;;;;5022350;28;20385;-63
2021/01/27 07:51:43;;;;;;;;;;;;;;;;;;5016407;28;19968;-63
2021/01/27 07:54:09;;;;;;;;;;;;;;;;;;5016803;28;19928;-62
2021/01/27 07:56:35;;;;;;;;;;;;;;;;;;5016434;28;20359;-63
2021/01/27 07:59:01;;;;;;;;;;;;;;;;;;5030464;28;19930;-63
2021/01/27 08:01:27;;;;;;;;;;;;;;;;;;5026245;28;19931;-62
2021/01/27 08:03:53;;;;;;;;;;;;;;;;;;5025312;28;19921;-62
2021/01/27 08:06:19;;;;;;;;;;;;;;;;;;5025909;28;19931;-63
2021/01/27 08:08:45;;;;;;;;;;;;;;;;;;5023116;28;20456;-61
2021/01/27 08:11:12;;;;;;;;;;;;;;;;;;5027622;28;20039;-61
2021/01/27 08:13:37;;;;;;;;;;;;;;;;;;5016337;28;19923;-62
2021/01/27 08:16:03;;;;;;;;;;;;;;;;;;5015897;28;20314;-62
2021/01/27 08:18:29;;;;;;;;;;;;;;;;;;5016420;28;19993;-62
2021/01/27 08:20:55;;;;;;;;;;;;;;;;;;5016350;28;20458;-62
2021/01/27 08:23:21;;;;;;;;;;;;;;;;;;5023037;28;19913;-62
2021/01/27 08:25:47;;;;;;;;;;;;;;;;;;5035573;28;19963;-62
2021/01/27 08:28:15;;;;;;;;;;;;;;;;;;5021945;28;20314;-62
2021/01/27 08:30:41;;;;;;;;;;;;;;;;;;5015697;28;19948;-62
2021/01/27 08:33:07;;;;;;;;;;;;;;;;;;5029482;28;19913;-62
2021/01/27 08:35:33;;;;;;;;;;;;;;;;;;5035478;28;20014;-62
2021/01/27 08:37:59;;;;;;;;;;;;;;;;;;5035382;28;19926;-62
2021/01/27 08:40:25;;;;;;;;;;;;;;;;;;5034514;28;19924;-63
2021/01/27 08:42:50;;;;;;;;;;;;;;;;;;5035453;28;19920;-64
2021/01/27 08:45:16;;;;;;;;;;;;;;;;;;5015691;28;20304;-64
2021/01/27 08:47:42;;;;;;;;;;;;;;;;;;5019562;28;20028;-63
2021/01/27 08:50:09;;;;;;;;;;;;;;;;;;5027954;28;20166;-62
2021/01/27 08:52:35;;;;;;;;;;;;;;;;;;5033811;28;20003;-63
2021/01/27 08:55:01;;;;;;;;;;;;;;;;;;5035530;28;20003;-63
2021/01/27 08:57:27;;;;;;;;;;;;;;;;;;5034981;28;19931;-64
2021/01/27 08:59:53;;;;;;;;;;;;;;;;;;5035346;28;19924;-64
2021/01/27 09:02:19;;;;;;;;;;;;;;;;;;5035187;28;20329;-64
2021/01/27 09:04:45;;;;;;;;;;;;;;;;;;5035460;28;19922;-64
2021/01/27 09:07:11;;;;;;;;;;;;;;;;;;5034956;28;20014;-64
2021/01/27 09:09:38;;;;;;;;;;;;;;;;;;5035239;28;20458;-64
2021/01/27 09:12:05;;;;;;;;;;;;;;;;;;5034826;28;19953;-64
2021/01/27 09:14:31;;;;;;;;;;;;;;;;;;5034796;28;19925;-64
2021/01/27 09:16:57;;;;;;;;;;;;;;;;;;5035084;28;19930;-64
2021/01/27 09:19:23;;;;;;;;;;;;;;;;;;5034988;28;20277;-64
2021/01/27 09:21:49;;;;;;;;;;;;;;;;;;5035008;28;20029;-64
2021/01/27 09:24:15;;;;;;;;;;;;;;;;;;5034447;28;19991;-63
2021/01/27 09:26:41;;;;;;;;;;;;;;;;;;5034525;28;19999;-64
2021/01/27 09:29:07;;;;;;;;;;;;;;;;;;5034543;28;19923;-64
2021/01/27 09:31:33;;;;;;;;;;;;;;;;;;5034423;28;20320;-64
2021/01/27 09:33:59;;;;;;;;;;;;;;;;;;5034673;28;19928;-63
2021/01/27 09:36:26;;;;;;;;;;;;;;;;;;5034715;28;20396;-63
2021/01/27 09:38:52;;;;;;;;;;;;;;;;;;5034561;28;20269;-64
2021/01/27 09:41:20;;;;;;;29.27;10.10;;;;;;;;;;5033693;28;24393;-65
2021/01/27 09:43:48;;;;;;;21.77;9.07;;;;;;;;;;5033696;28;20041;-64
2021/01/27 09:46:25;;;;;;;18.30;9.02;;;;;;;;;;5030887;28;20020;-65
2021/01/27 09:48:52;;;;;;;14.05;7.97;;;;;;;;;;5031572;28;20625;-63
2021/01/27 09:51:19;;;;;;;14.50;8.38;;;;;;;;;;5013842;28;20033;-63
2021/01/27 09:53:45;;;;;;;23.65;10.73;;;;;;;;;;5014296;28;20514;-64
2021/01/27 09:56:15;;;;;;;13.35;6.68;;;;;;;;;;5013859;28;20022;-64
2021/01/27 09:58:42;;;;;;;19.98;6.30;;;;;;;;;;5013762;28;20021;-64
2021/01/27 10:01:11;;;;;;;33.83;6.47;;;;;;;;;;5013836;28;20042;-65
2021/01/27 10:03:42;;;;;;;16.42;6.63;;;;;;;;;;5013995;28;20049;-63
2021/01/27 10:06:26;;;;;;;14.13;6.10;;;;;;;;;;5013705;28;20068;-64
2021/01/27 10:08:54;;;;;;;15.70;5.55;;;;;;;;;;5013626;28;20080;-63
2021/01/27 10:11:36;;;;;;;12.75;5.10;;;;;;;;;;5013415;28;20026;-64
2021/01/27 10:14:07;;;;;;;9.88;4.50;;;;;;;;;;5013844;28;20022;-65
2021/01/27 10:16:34;;;;;;;13.68;3.83;;;;;;;;;;5013916;28;20030;-64
2021/01/27 10:19:08;;;;;;;17.05;4.28;;;;;;;;;;5013567;28;20364;-65
2021/01/27 10:21:47;;;;;;;5.18;2.75;;;;;;;;;;5013741;28;20053;-64
2021/01/27 10:24:32;;;;;;;10.65;3.65;;;;;;;;;;5013465;28;20069;-63
2021/01/27 10:27:03;;;;;;;18.30;3.90;;;;;;;;;;5017478;28;20029;-64
2021/01/27 10:29:37;;;;;;;12.00;2.97;;;;;;;;;;5019500;28;20111;-65
2021/01/27 10:32:20;;;;;;;8.82;3.10;;;;;;;;;;5013662;28;20125;-65
2021/01/27 10:34:47;;;;;;;9.43;2.90;;;;;;;;;;5024931;28;20029;-65
2021/01/27 10:37:30;;;;;;;6.03;3.17;;;;;;;;;;5033286;28;20026;-65
2021/01/27 10:40:14;;;;;;;8.90;3.28;;;;;;;;;;5033379;28;20018;-65
2021/01/27 10:42:45;;;;;;;8.15;2.83;;;;;;;;;;5033332;28;20025;-65
2021/01/27 10:45:17;;;;;;;9.25;3.20;;;;;;;;;;5033055;28;20029;-64
2021/01/27 10:47:45;;;;;;;5.70;2.63;;;;;;;;;;5033299;28;20036;-64
2021/01/27 10:50:12;;;;;;;7.30;3.00;;;;;;;;;;5032848;28;20026;-64
2021/01/27 10:52:38;;;;;;;14.45;3.85;;;;;;;;;;5032937;28;20037;-65
2021/01/27 10:55:07;;;;;;;9.38;3.33;;;;;;;;;;5021355;28;20033;-64
2021/01/27 10:57:33;;;;;;;13.85;4.70;;;;;;;;;;5013329;28;20026;-64
2021/01/27 11:00:00;;;;;;;10.80;3.67;;;;;;;;;;5013494;28;20510;-64
2021/01/27 11:02:28;;;;;;;11.43;5.18;;;;;;;;;;5019273;28;20083;-64
2021/01/27 11:04:54;;;;;;;9.23;4.07;;;;;;;;;;5020082;28;20069;-63
2021/01/27 11:07:20;;;;;;;5.70;3.72;;;;;;;;;;5016832;28;20489;-63
2021/01/27 11:09:47;;;;;;;12.13;4.68;;;;;;;;;;5016964;28;20084;-65
2021/01/27 11:12:13;;;;;;;7.43;4.28;;;;;;;;;;5025228;28;20125;-64
2021/01/27 11:14:40;;;;;;;9.98;4.00;;;;;;;;;;5021694;28;20026;-64
2021/01/27 11:17:06;;;;;;;18.15;5.15;;;;;;;;;;5018228;28;20472;-64
2021/01/27 11:19:32;;;;;;;10.90;5.20;;;;;;;;;;5016751;28;20022;-67
2021/01/27 11:21:59;;;;;;;12.80;5.35;;;;;;;;;;5016901;28;20381;-65
2021/01/27 11:24:25;;;;;;;16.90;5.10;;;;;;;;;;5025084;28;20029;-64
2021/01/27 11:26:51;;;;;;;9.77;5.32;;;;;;;;;;5036233;28;20487;-64
2021/01/27 11:29:17;;;;;;;9.40;4.63;;;;;;;;;;5033829;28;20025;-64
2021/01/27 11:31:43;;;;;;;8.93;4.78;;;;;;;;;;5016114;28;20060;-65
2021/01/27 11:34:10;;;;;;;12.50;4.32;;;;;;;;;;5016036;28;20117;-65
2021/01/27 11:36:36;;;;;;;19.55;4.72;;;;;;;;;;5016329;28;20026;-65
2021/01/27 11:39:02;;;;;;;12.23;4.78;;;;;;;;;;5022363;28;20434;-65
2021/01/27 11:41:28;;;;;;;7.28;4.53;;;;;;;;;;5017468;28;20036;-65
2021/01/27 11:43:54;;;;;;;7.25;4.30;;;;;;;;;;5015785;28;20026;-64
2021/01/27 11:46:21;;;;;;;8.40;4.15;;;;;;;;;;5015616;28;20022;-63
2021/01/27 11:48:47;;;;;;;16.50;5.35;;;;;;;;;;5016120;28;20029;-65
2021/01/27 11:51:14;;;;;;;10.70;5.10;;;;;;;;;;5015465;28;20026;-64
2021/01/27 11:53:40;;;;;;;13.60;5.30;;;;;;;;;;5015609;28;20052;-65
2021/01/27 11:56:06;;;;;;;9.65;4.97;;;;;;;;;;5015436;28;20489;-63
2021/01/27 11:58:33;;;;;;;10.98;5.60;;;;;;;;;;5016083;28;20026;-64
2021/01/27 12:00:59;;;;;;;14.23;7.75;;;;;;;;;;5016099;28;20364;-65
2021/01/27 12:03:26;;;;;;;11.77;4.43;;;;;;;;;;5015883;28;20030;-64
2021/01/27 12:05:52;;;;;;;9.35;4.65;;;;;;;;;;5015757;28;20022;-64
2021/01/27 12:08:18;;;;;;;14.40;6.50;;;;;;;;;;5015857;28;20037;-65
2021/01/27 12:10:45;;;;;;;12.73;4.20;;;;;;;;;;5017516;28;20029;-63
2021/01/27 12:13:11;;;;;;;21.33;6.53;;;;;;;;;;5016823;28;20034;-64
2021/01/27 12:15:38;;;;;;;20.50;5.70;;;;;;;;;;5014984;28;20056;-63
2021/01/27 12:18:04;;;;;;;17.67;5.47;;;;;;;;;;5015503;28;20113;-63
2021/01/27 12:20:30;;;;;;;19.23;7.25;;;;;;;;;;5015048;28;20374;-64
2021/01/27 12:22:58;;;;;;;19.20;9.00;;;;;;;;;;5015283;28;20018;-63
2021/01/27 12:25:24;;;;;;;18.25;7.10;;;;;;;;;;5014683;28;20088;-63
2021/01/27 12:27:50;;;;;;;13.35;5.47;;;;;;;;;;5015130;28;20014;-63
2021/01/27 12:30:17;;;;;;;12.35;4.50;;;;;;;;;;5018400;28;20125;-64
2021/01/27 12:32:43;;;;;;;14.48;5.03;;;;;;;;;;5022184;28;20041;-63
2021/01/27 12:35:10;;;;;;;10.13;4.82;;;;;;;;;;5018124;28;20084;-63
2021/01/27 12:37:37;;;;;;;10.48;5.80;;;;;;;;;;5014839;28;20046;-65
2021/01/27 12:40:04;;;;;;;13.20;5.45;;;;;;;;;;5015057;28;20457;-63
2021/01/27 12:42:30;;;;;;;17.33;6.93;;;;;;;;;;5014793;28;20379;-64
2021/01/27 12:44:56;;;;;;;38.58;12.38;;;;;;;;;;5014720;28;20087;-65
2021/01/27 12:47:22;;;;;;;243.38;78.13;;;;;;;;;;5015108;28;20026;-65
2021/01/27 12:49:49;;;;;;;102.22;35.28;;;;;;;;;;5015061;28;20041;-65
2021/01/27 12:52:16;;;;;;;128.43;53.78;;;;;;;;;;5014758;28;20071;-65
2021/01/27 12:54:42;;;;;;;126.07;58.58;;;;;;;;;;5015708;28;20497;-65
2021/01/27 12:57:09;;;;;;;51.85;23.95;;;;;;;;;;5015158;28;20077;-65
2021/01/27 12:59:35;;;;;;;66.57;33.58;;;;;;;;;;5015178;28;20026;-65
2021/01/27 13:02:01;;;;;;;24.50;10.43;;;;;;;;;;5017310;28;20033;-65
2021/01/27 13:04:27;;;;;;;51.88;27.65;;;;;;;;;;5025851;28;20025;-64
2021/01/27 13:06:53;;;;;;;36.17;18.98;;;;;;;;;;5031888;28;20041;-65
2021/01/27 13:09:19;;;;;;;34.20;15.70;;;;;;;;;;5014221;28;20026;-65
2021/01/27 13:11:51;;;;;;;43.47;19.63;;;;;;;;;;5014551;28;20034;-65
2021/01/27 13:14:18;;;;;;;83.32;38.20;;;;;;;;;;5014237;28;20061;-65
2021/01/27 13:16:44;;;;;;;46.97;26.25;;;;;;;;;;5014238;28;20030;-65
2021/01/27 13:19:10;;;;;;;33.00;18.23;;;;;;;;;;5013023;28;20022;-65
2021/01/27 13:21:36;;;;;;;60.85;32.67;;;;;;;;;;5014235;28;20080;-65
2021/01/27 13:24:03;;;;;;;8.55;4.45;;;;;;;;;;5014350;28;20045;-65
2021/01/27 13:26:29;;;;;;;64.78;24.88;;;;;;;;;;5013605;28;20033;-65
2021/01/27 13:28:55;;;;;;;70.72;42.10;;;;;;;;;;5014627;28;20109;-64
2021/01/27 13:31:21;;;;;;;22.77;11.95;;;;;;;;;;5014502;28;20093;-63
2021/01/27 13:33:47;;;;;;;16.85;9.85;;;;;;;;;;5013693;28;20418;-60
2021/01/27 13:36:15;;;;;;;29.77;16.42;;;;;;;;;;5017560;28;20021;-61
2021/01/27 13:38:42;;;;;;;8.00;3.35;;;;;;;;;;5014305;28;20485;-62
2021/01/27 13:41:08;;;;;;;7.38;3.40;;;;;;;;;;5013823;28;20018;-60
2021/01/27 13:43:34;;;;;;;9.27;3.58;;;;;;;;;;5033925;28;20022;-65
2021/01/27 13:46:01;;;;;;;17.45;7.47;;;;;;;;;;5033795;28;20048;-65
2021/01/27 13:48:27;;;;;;;16.45;4.75;;;;;;;;;;5033764;28;20026;-64
2021/01/27 13:50:53;;;;;;;22.98;14.63;;;;;;;;;;5033639;28;20520;-64
2021/01/27 13:53:19;;;;;;;54.78;29.83;;;;;;;;;;5033857;28;20463;-65
2021/01/27 13:55:46;;;;;;;43.20;11.65;;;;;;;;;;5034036;28;20144;-64
2021/01/27 13:58:12;;;;;;;17.85;8.25;;;;;;;;;;5033671;28;20116;-64
2021/01/27 14:00:38;;;;;;;22.02;7.88;;;;;;;;;;5033857;28;20125;-64
2021/01/27 14:03:04;;;;;;;36.80;18.55;;;;;;;;;;5023080;28;20033;-64
2021/01/27 14:05:30;;;;;;;15.00;8.38;;;;;;;;;;5013388;28;20108;-64
2021/01/27 14:07:57;;;;;;;26.73;15.50;;;;;;;;;;5014313;28;20018;-64
2021/01/27 14:10:30;;;;;;;14.55;6.70;;;;;;;;;;5013232;28;20049;-64
2021/01/27 14:12:56;;;;;;;22.33;12.45;;;;;;;;;;5013798;28;20041;-65
2021/01/27 14:15:24;;;;;;;37.97;21.17;;;;;;;;;;5013932;28;20092;-64
2021/01/27 14:17:51;;;;;;;28.45;11.23;;;;;;;;;;5013563;28;20535;-65
2021/01/27 14:20:18;;;;;;;45.83;23.67;;;;;;;;;;5013606;28;20467;-65
2021/01/27 14:22:44;;;;;;;46.95;21.25;;;;;;;;;;5013461;28;20034;-63
2021/01/27 14:25:11;;;;;;;15.30;7.00;;;;;;;;;;5013423;28;20058;-65
2021/01/27 14:27:41;;;;;;;16.60;6.20;;;;;;;;;;5013661;28;20052;-64
2021/01/27 14:30:08;;;;;;;13.90;4.55;;;;;;;;;;5013887;28;20033;-65
2021/01/27 14:32:35;;;;;;;8.32;3.30;;;;;;;;;;5013275;28;20476;-65
2021/01/27 14:35:01;;;;;;;13.57;3.70;;;;;;;;;;5013386;28;20127;-65
2021/01/27 14:37:27;;;;;;;19.77;5.47;;;;;;;;;;5015245;28;20041;-65
2021/01/27 14:39:53;;;;;;;8.20;3.00;;;;;;;;;;5017495;28;20029;-65
2021/01/27 14:42:19;;;;;;;10.40;4.10;;;;;;;;;;5017694;28;20033;-65
2021/01/27 14:44:46;;;;;;;16.85;5.93;;;;;;;;;;5017755;28;20026;-65
2021/01/27 14:47:12;;;;;;;23.38;4.00;;;;;;;;;;5017110;28;20068;-64
2021/01/27 14:49:39;;;;;;;14.77;3.95;;;;;;;;;;5028631;28;20064;-64
2021/01/27 14:52:06;;;;;;;12.45;3.70;;;;;;;;;;5017113;28;20042;-63
2021/01/27 14:54:35;;;;;;;10.15;3.67;;;;;;;;;;5032116;28;20527;-63
2021/01/27 14:57:01;;;;;;;17.48;4.00;;;;;;;;;;5019026;28;20471;-64
2021/01/27 14:59:27;;;;;;;18.13;4.25;;;;;;;;;;5020858;28;20095;-64
2021/01/27 15:01:54;;;;;;;14.48;4.25;;;;;;;;;;5030723;28;20074;-65
2021/01/27 15:04:20;;;;;;;12.85;4.00;;;;;;;;;;5020370;28;20355;-63
2021/01/27 15:06:46;;;;;;;15.82;4.85;;;;;;;;;;5017355;28;20474;-65
2021/01/27 15:09:12;;;;;;;16.77;5.28;;;;;;;;;;5017166;28;20104;-65
2021/01/27 15:11:38;;;;;;;19.25;6.15;;;;;;;;;;5016729;28;20404;-66
2021/01/27 15:14:04;;;;;;;11.65;4.82;;;;;;;;;;5017030;28;20022;-65
2021/01/27 15:16:30;;;;;;;26.45;7.68;;;;;;;;;;5016710;28;20096;-64
2021/01/27 15:18:56;;;;;;;25.25;8.77;;;;;;;;;;5016951;28;20025;-65
2021/01/27 15:21:23;;;;;;;22.08;6.68;;;;;;;;;;5016658;28;20105;-64
2021/01/27 15:23:49;;;;;;;24.75;5.47;;;;;;;;;;5016478;28;20068;-64
2021/01/27 15:26:15;;;;;;;15.23;5.47;;;;;;;;;;5016929;28;20376;-65
2021/01/27 15:28:41;;;;;;;17.85;6.82;;;;;;;;;;5016777;28;20436;-64
2021/01/27 15:31:08;;;;;;;18.92;7.63;;;;;;;;;;5016670;28;20049;-64
2021/01/27 15:33:34;;;;;;;23.00;6.47;;;;;;;;;;5017261;28;20509;-62
2021/01/27 15:36:04;;;;;;;25.27;8.45;;;;;;;;;;5016333;28;20360;-61
2021/01/27 15:38:30;;;;;;;22.80;10.75;;;;;;;;;;5016188;28;20414;-63
2021/01/27 15:40:56;;;;;;;27.10;9.38;;;;;;;;;;5016961;28;20104;-64
2021/01/27 15:43:22;;;;;;;20.33;7.22;;;;;;;;;;5016751;28;20076;-65